sensor_id;sensor_type;location;lat;lon;timestamp;P1;durP1;ratioP1;P2;durP2;ratioP2
29314;SDS011;16320;53.954;9.506;2023-07-31T00:01:04;8.52;;;4.15;;
29314;SDS011;16320;53.954;9.506;2023-07-31T00:04:08;11.98;;;4.47;;
29314;SDS011;16320;53.954;9.506;2023-07-31T00:07:14;8.93;;;4.85;;
29314;SDS011;16320;53.954;9.506;2023-07-31T00:10:19;13.95;;;5.03;;
29314;SDS011;16320;53.954;9.506;2023-07-31T00:13:24;16.17;;;5.43;;
29314;SDS011;16320;53.954;9.506;2023-07-31T00:16:29;12.35;;;5.38;;
29314;SDS011;16320;53.954;9.506;2023-07-31T00:19:33;15.13;;;5.40;;
29314;SDS011;16320;53.954;9.506;2023-07-31T00:22:38;11.07;;;5.18;;
29314;SDS011;16320;53.954;9.506;2023-07-31T00:25:43;11.43;;;4.80;;
29314;SDS011;16320;53.954;9.506;2023-07-31T00:28:48;12.45;;;5.43;;
29314;SDS011;16320;53.954;9.506;2023-07-31T00:31:52;15.38;;;6.05;;
29314;SDS011;16320;53.954;9.506;2023-07-31T00:34:57;28.63;;;6.15;;
29314;SDS011;16320;53.954;9.506;2023-07-31T00:41:06;13.70;;;5.50;;
29314;SDS011;16320;53.954;9.506;2023-07-31T00:44:10;12.60;;;4.93;;
29314;SDS011;16320;53.954;9.506;2023-07-31T00:47:15;22.35;;;6.68;;
29314;SDS011;16320;53.954;9.506;2023-07-31T00:50:20;13.43;;;6.78;;
29314;SDS011;16320;53.954;9.506;2023-07-31T00:53:27;14.85;;;5.25;;
29314;SDS011;16320;53.954;9.506;2023-07-31T00:56:32;24.50;;;6.28;;
29314;SDS011;16320;53.954;9.506;2023-07-31T00:59:37;10.38;;;6.22;;
29314;SDS011;16320;53.954;9.506;2023-07-31T01:02:41;16.88;;;6.90;;
29314;SDS011;16320;53.954;9.506;2023-07-31T01:12:51;20.33;;;8.70;;
29314;SDS011;16320;53.954;9.506;2023-07-31T01:16:00;24.40;;;9.40;;
29314;SDS011;16320;53.954;9.506;2023-07-31T01:19:05;34.50;;;10.90;;
29314;SDS011;16320;53.954;9.506;2023-07-31T01:29:07;36.15;;;9.65;;
29314;SDS011;16320;53.954;9.506;2023-07-31T01:32:36;36.97;;;11.32;;
29314;SDS011;16320;53.954;9.506;2023-07-31T01:35:44;36.72;;;10.82;;
29314;SDS011;16320;53.954;9.506;2023-07-31T01:38:50;35.40;;;10.65;;
29314;SDS011;16320;53.954;9.506;2023-07-31T01:41:54;39.67;;;12.13;;
29314;SDS011;16320;53.954;9.506;2023-07-31T01:44:59;44.83;;;12.55;;
29314;SDS011;16320;53.954;9.506;2023-07-31T01:48:04;39.50;;;11.75;;
29314;SDS011;16320;53.954;9.506;2023-07-31T01:51:09;43.00;;;13.15;;
29314;SDS011;16320;53.954;9.506;2023-07-31T01:54:13;49.67;;;13.85;;
29314;SDS011;16320;53.954;9.506;2023-07-31T01:57:17;42.63;;;13.95;;
29314;SDS011;16320;53.954;9.506;2023-07-31T02:00:22;45.95;;;12.98;;
29314;SDS011;16320;53.954;9.506;2023-07-31T02:03:27;39.38;;;13.57;;
29314;SDS011;16320;53.954;9.506;2023-07-31T02:06:33;39.67;;;13.13;;
29314;SDS011;16320;53.954;9.506;2023-07-31T02:09:38;41.25;;;13.02;;
29314;SDS011;16320;53.954;9.506;2023-07-31T02:12:42;41.65;;;12.30;;
29314;SDS011;16320;53.954;9.506;2023-07-31T02:15:47;40.72;;;13.05;;
29314;SDS011;16320;53.954;9.506;2023-07-31T02:18:52;49.13;;;13.35;;
29314;SDS011;16320;53.954;9.506;2023-07-31T02:21:57;37.47;;;13.63;;
29314;SDS011;16320;53.954;9.506;2023-07-31T02:25:01;42.58;;;13.07;;
29314;SDS011;16320;53.954;9.506;2023-07-31T02:28:05;40.78;;;13.13;;
29314;SDS011;16320;53.954;9.506;2023-07-31T02:31:10;41.83;;;15.43;;
29314;SDS011;16320;53.954;9.506;2023-07-31T02:34:15;41.10;;;14.30;;
29314;SDS011;16320;53.954;9.506;2023-07-31T02:37:19;62.13;;;16.10;;
29314;SDS011;16320;53.954;9.506;2023-07-31T02:40:24;50.33;;;17.15;;
29314;SDS011;16320;53.954;9.506;2023-07-31T02:43:29;55.38;;;15.02;;
29314;SDS011;16320;53.954;9.506;2023-07-31T02:46:33;44.45;;;14.73;;
29314;SDS011;16320;53.954;9.506;2023-07-31T02:49:38;40.38;;;15.63;;
29314;SDS011;16320;53.954;9.506;2023-07-31T02:52:42;59.72;;;16.35;;
29314;SDS011;16320;53.954;9.506;2023-07-31T02:55:47;43.50;;;15.38;;
29314;SDS011;16320;53.954;9.506;2023-07-31T03:01:55;60.35;;;15.60;;
29314;SDS011;16320;53.954;9.506;2023-07-31T03:05:00;59.10;;;16.63;;
29314;SDS011;16320;53.954;9.506;2023-07-31T03:08:04;51.42;;;16.23;;
29314;SDS011;16320;53.954;9.506;2023-07-31T03:11:09;63.92;;;18.35;;
29314;SDS011;16320;53.954;9.506;2023-07-31T03:14:13;45.38;;;15.40;;
29314;SDS011;16320;53.954;9.506;2023-07-31T03:17:20;55.38;;;16.95;;
29314;SDS011;16320;53.954;9.506;2023-07-31T03:20:25;61.10;;;16.80;;
29314;SDS011;16320;53.954;9.506;2023-07-31T03:23:29;40.78;;;16.27;;
29314;SDS011;16320;53.954;9.506;2023-07-31T03:26:34;50.28;;;17.38;;
29314;SDS011;16320;53.954;9.506;2023-07-31T03:29:40;63.67;;;16.77;;
29314;SDS011;16320;53.954;9.506;2023-07-31T03:32:45;57.58;;;16.05;;
29314;SDS011;16320;53.954;9.506;2023-07-31T03:35:49;54.97;;;17.77;;
29314;SDS011;16320;53.954;9.506;2023-07-31T03:38:54;40.63;;;16.70;;
29314;SDS011;16320;53.954;9.506;2023-07-31T03:41:58;51.17;;;16.02;;
29314;SDS011;16320;53.954;9.506;2023-07-31T03:45:06;52.35;;;16.02;;
29314;SDS011;16320;53.954;9.506;2023-07-31T03:48:14;51.30;;;16.50;;
29314;SDS011;16320;53.954;9.506;2023-07-31T03:51:20;51.95;;;16.17;;
29314;SDS011;16320;53.954;9.506;2023-07-31T03:54:24;47.80;;;16.52;;
29314;SDS011;16320;53.954;9.506;2023-07-31T03:57:28;47.85;;;16.25;;
29314;SDS011;16320;53.954;9.506;2023-07-31T04:00:33;58.08;;;17.55;;
29314;SDS011;16320;53.954;9.506;2023-07-31T04:03:37;56.50;;;16.55;;
29314;SDS011;16320;53.954;9.506;2023-07-31T04:06:42;54.20;;;17.02;;
29314;SDS011;16320;53.954;9.506;2023-07-31T04:09:46;50.80;;;16.48;;
29314;SDS011;16320;53.954;9.506;2023-07-31T04:12:51;58.13;;;17.20;;
29314;SDS011;16320;53.954;9.506;2023-07-31T04:15:55;51.72;;;17.00;;
29314;SDS011;16320;53.954;9.506;2023-07-31T04:19:00;61.47;;;16.58;;
29314;SDS011;16320;53.954;9.506;2023-07-31T04:22:06;42.25;;;15.98;;
29314;SDS011;16320;53.954;9.506;2023-07-31T04:25:11;60.50;;;16.70;;
29314;SDS011;16320;53.954;9.506;2023-07-31T04:28:15;54.72;;;16.63;;
29314;SDS011;16320;53.954;9.506;2023-07-31T04:31:20;47.95;;;16.05;;
29314;SDS011;16320;53.954;9.506;2023-07-31T04:34:24;51.00;;;17.42;;
29314;SDS011;16320;53.954;9.506;2023-07-31T04:37:28;52.65;;;15.68;;
29314;SDS011;16320;53.954;9.506;2023-07-31T04:40:33;48.47;;;16.00;;
29314;SDS011;16320;53.954;9.506;2023-07-31T04:43:37;43.40;;;15.40;;
29314;SDS011;16320;53.954;9.506;2023-07-31T04:46:43;53.95;;;15.90;;
29314;SDS011;16320;53.954;9.506;2023-07-31T04:49:47;50.38;;;15.63;;
29314;SDS011;16320;53.954;9.506;2023-07-31T04:52:51;49.17;;;17.52;;
29314;SDS011;16320;53.954;9.506;2023-07-31T04:55:57;44.00;;;15.13;;
29314;SDS011;16320;53.954;9.506;2023-07-31T04:59:01;56.55;;;14.35;;
29314;SDS011;16320;53.954;9.506;2023-07-31T05:02:07;36.78;;;14.07;;
29314;SDS011;16320;53.954;9.506;2023-07-31T05:05:12;42.58;;;14.57;;
29314;SDS011;16320;53.954;9.506;2023-07-31T05:08:17;37.20;;;14.82;;
29314;SDS011;16320;53.954;9.506;2023-07-31T05:11:22;32.03;;;12.90;;
29314;SDS011;16320;53.954;9.506;2023-07-31T05:14:26;30.17;;;11.32;;
29314;SDS011;16320;53.954;9.506;2023-07-31T05:17:30;34.30;;;11.60;;
29314;SDS011;16320;53.954;9.506;2023-07-31T05:20:35;32.10;;;11.30;;
29314;SDS011;16320;53.954;9.506;2023-07-31T05:23:39;30.45;;;11.38;;
29314;SDS011;16320;53.954;9.506;2023-07-31T05:26:44;29.60;;;10.63;;
29314;SDS011;16320;53.954;9.506;2023-07-31T05:29:48;23.63;;;10.05;;
29314;SDS011;16320;53.954;9.506;2023-07-31T05:32:52;31.60;;;10.07;;
29314;SDS011;16320;53.954;9.506;2023-07-31T05:35:57;23.20;;;9.60;;
29314;SDS011;16320;53.954;9.506;2023-07-31T05:39:01;21.88;;;9.30;;
29314;SDS011;16320;53.954;9.506;2023-07-31T05:42:10;22.65;;;8.57;;
29314;SDS011;16320;53.954;9.506;2023-07-31T05:45:15;21.40;;;8.82;;
29314;SDS011;16320;53.954;9.506;2023-07-31T05:48:19;29.40;;;8.75;;
29314;SDS011;16320;53.954;9.506;2023-07-31T05:51:24;20.27;;;7.72;;
29314;SDS011;16320;53.954;9.506;2023-07-31T05:54:29;17.48;;;7.10;;
29314;SDS011;16320;53.954;9.506;2023-07-31T05:57:33;23.00;;;7.45;;
29314;SDS011;16320;53.954;9.506;2023-07-31T06:00:38;18.60;;;7.00;;
29314;SDS011;16320;53.954;9.506;2023-07-31T06:03:42;25.38;;;7.57;;
29314;SDS011;16320;53.954;9.506;2023-07-31T06:06:47;18.40;;;6.32;;
29314;SDS011;16320;53.954;9.506;2023-07-31T06:09:52;17.50;;;6.35;;
29314;SDS011;16320;53.954;9.506;2023-07-31T06:12:58;15.57;;;6.38;;
29314;SDS011;16320;53.954;9.506;2023-07-31T06:16:02;25.83;;;6.05;;
29314;SDS011;16320;53.954;9.506;2023-07-31T06:19:09;16.88;;;6.18;;
29314;SDS011;16320;53.954;9.506;2023-07-31T06:22:14;17.75;;;6.47;;
29314;SDS011;16320;53.954;9.506;2023-07-31T06:25:18;20.02;;;6.03;;
29314;SDS011;16320;53.954;9.506;2023-07-31T06:28:30;13.75;;;5.93;;
29314;SDS011;16320;53.954;9.506;2023-07-31T06:31:35;13.40;;;5.40;;
29314;SDS011;16320;53.954;9.506;2023-07-31T06:34:40;11.15;;;5.25;;
29314;SDS011;16320;53.954;9.506;2023-07-31T06:37:44;12.77;;;5.28;;
29314;SDS011;16320;53.954;9.506;2023-07-31T06:40:49;12.25;;;4.55;;
29314;SDS011;16320;53.954;9.506;2023-07-31T06:43:53;20.73;;;6.13;;
29314;SDS011;16320;53.954;9.506;2023-07-31T06:46:58;15.50;;;5.43;;
29314;SDS011;16320;53.954;9.506;2023-07-31T06:50:02;19.08;;;5.50;;
29314;SDS011;16320;53.954;9.506;2023-07-31T06:53:06;15.70;;;6.30;;
29314;SDS011;16320;53.954;9.506;2023-07-31T06:56:11;14.60;;;5.22;;
29314;SDS011;16320;53.954;9.506;2023-07-31T06:59:15;16.40;;;5.15;;
29314;SDS011;16320;53.954;9.506;2023-07-31T07:02:19;24.60;;;5.60;;
29314;SDS011;16320;53.954;9.506;2023-07-31T07:05:24;21.13;;;5.97;;
29314;SDS011;16320;53.954;9.506;2023-07-31T07:08:28;16.65;;;6.47;;
29314;SDS011;16320;53.954;9.506;2023-07-31T07:11:33;15.98;;;5.85;;
29314;SDS011;16320;53.954;9.506;2023-07-31T07:14:38;11.32;;;5.03;;
29314;SDS011;16320;53.954;9.506;2023-07-31T07:17:43;21.50;;;6.13;;
29314;SDS011;16320;53.954;9.506;2023-07-31T07:20:51;22.92;;;7.15;;
29314;SDS011;16320;53.954;9.506;2023-07-31T07:23:57;22.52;;;5.88;;
29314;SDS011;16320;53.954;9.506;2023-07-31T07:27:01;21.98;;;6.40;;
29314;SDS011;16320;53.954;9.506;2023-07-31T07:30:06;16.40;;;6.32;;
29314;SDS011;16320;53.954;9.506;2023-07-31T07:33:11;16.90;;;6.57;;
29314;SDS011;16320;53.954;9.506;2023-07-31T07:36:16;17.88;;;6.05;;
29314;SDS011;16320;53.954;9.506;2023-07-31T07:39:21;23.83;;;6.40;;
29314;SDS011;16320;53.954;9.506;2023-07-31T07:42:26;13.57;;;6.03;;
29314;SDS011;16320;53.954;9.506;2023-07-31T07:45:30;24.48;;;6.90;;
29314;SDS011;16320;53.954;9.506;2023-07-31T07:48:35;18.10;;;6.28;;
29314;SDS011;16320;53.954;9.506;2023-07-31T07:51:39;21.45;;;6.97;;
29314;SDS011;16320;53.954;9.506;2023-07-31T07:54:45;17.33;;;6.90;;
29314;SDS011;16320;53.954;9.506;2023-07-31T07:57:49;25.70;;;7.60;;
29314;SDS011;16320;53.954;9.506;2023-07-31T08:00:54;19.80;;;7.97;;
29314;SDS011;16320;53.954;9.506;2023-07-31T08:03:59;16.95;;;7.90;;
29314;SDS011;16320;53.954;9.506;2023-07-31T08:07:03;19.98;;;8.85;;
29314;SDS011;16320;53.954;9.506;2023-07-31T08:10:08;18.77;;;8.05;;
29314;SDS011;16320;53.954;9.506;2023-07-31T08:13:13;22.75;;;7.60;;
29314;SDS011;16320;53.954;9.506;2023-07-31T08:16:17;25.85;;;7.70;;
29314;SDS011;16320;53.954;9.506;2023-07-31T08:19:22;24.10;;;8.32;;
29314;SDS011;16320;53.954;9.506;2023-07-31T08:22:27;27.05;;;8.95;;
29314;SDS011;16320;53.954;9.506;2023-07-31T08:25:34;27.42;;;9.50;;
29314;SDS011;16320;53.954;9.506;2023-07-31T08:28:39;31.88;;;9.68;;
29314;SDS011;16320;53.954;9.506;2023-07-31T08:31:44;24.40;;;9.38;;
29314;SDS011;16320;53.954;9.506;2023-07-31T08:34:48;25.98;;;8.38;;
29314;SDS011;16320;53.954;9.506;2023-07-31T08:37:53;23.50;;;8.35;;
29314;SDS011;16320;53.954;9.506;2023-07-31T08:40:58;32.83;;;9.00;;
29314;SDS011;16320;53.954;9.506;2023-07-31T08:44:02;31.40;;;9.93;;
29314;SDS011;16320;53.954;9.506;2023-07-31T08:47:08;27.35;;;9.32;;
29314;SDS011;16320;53.954;9.506;2023-07-31T08:50:15;23.33;;;8.82;;
29314;SDS011;16320;53.954;9.506;2023-07-31T08:53:22;27.55;;;9.73;;
29314;SDS011;16320;53.954;9.506;2023-07-31T08:56:26;20.25;;;8.27;;
29314;SDS011;16320;53.954;9.506;2023-07-31T08:59:32;24.90;;;9.43;;
29314;SDS011;16320;53.954;9.506;2023-07-31T09:02:47;23.92;;;8.40;;
29314;SDS011;16320;53.954;9.506;2023-07-31T09:06:09;19.95;;;7.28;;
29314;SDS011;16320;53.954;9.506;2023-07-31T09:09:14;15.65;;;7.00;;
29314;SDS011;16320;53.954;9.506;2023-07-31T09:12:20;16.83;;;7.40;;
29314;SDS011;16320;53.954;9.506;2023-07-31T09:15:26;10.85;;;6.65;;
29314;SDS011;16320;53.954;9.506;2023-07-31T09:22:02;23.15;;;7.57;;
29314;SDS011;16320;53.954;9.506;2023-07-31T09:25:14;24.33;;;7.28;;
29314;SDS011;16320;53.954;9.506;2023-07-31T09:28:22;14.48;;;7.00;;
29314;SDS011;16320;53.954;9.506;2023-07-31T09:31:42;25.60;;;7.90;;
29314;SDS011;16320;53.954;9.506;2023-07-31T09:34:47;16.08;;;7.05;;
29314;SDS011;16320;53.954;9.506;2023-07-31T09:37:53;19.02;;;7.28;;
29314;SDS011;16320;53.954;9.506;2023-07-31T09:41:04;15.48;;;6.55;;
29314;SDS011;16320;53.954;9.506;2023-07-31T09:44:12;15.60;;;6.68;;
29314;SDS011;16320;53.954;9.506;2023-07-31T09:47:23;15.65;;;6.75;;
29314;SDS011;16320;53.954;9.506;2023-07-31T09:50:29;14.57;;;6.75;;
29314;SDS011;16320;53.954;9.506;2023-07-31T09:53:34;12.25;;;6.15;;
29314;SDS011;16320;53.954;9.506;2023-07-31T09:56:47;15.68;;;6.60;;
29314;SDS011;16320;53.954;9.506;2023-07-31T09:59:53;16.00;;;5.72;;
29314;SDS011;16320;53.954;9.506;2023-07-31T10:03:00;16.27;;;5.82;;
29314;SDS011;16320;53.954;9.506;2023-07-31T10:06:09;12.27;;;5.47;;
29314;SDS011;16320;53.954;9.506;2023-07-31T10:09:14;12.57;;;5.53;;
29314;SDS011;16320;53.954;9.506;2023-07-31T10:12:22;14.40;;;5.40;;
29314;SDS011;16320;53.954;9.506;2023-07-31T10:15:32;11.57;;;5.90;;
29314;SDS011;16320;53.954;9.506;2023-07-31T10:18:38;15.07;;;5.50;;
29314;SDS011;16320;53.954;9.506;2023-07-31T10:21:44;12.68;;;5.03;;
29314;SDS011;16320;53.954;9.506;2023-07-31T10:24:50;17.38;;;5.60;;
29314;SDS011;16320;53.954;9.506;2023-07-31T10:27:58;24.30;;;6.13;;
29314;SDS011;16320;53.954;9.506;2023-07-31T10:31:03;17.42;;;5.68;;
29314;SDS011;16320;53.954;9.506;2023-07-31T10:34:09;9.90;;;4.68;;
29314;SDS011;16320;53.954;9.506;2023-07-31T10:37:20;12.02;;;5.07;;
29314;SDS011;16320;53.954;9.506;2023-07-31T10:40:33;11.77;;;5.30;;
29314;SDS011;16320;53.954;9.506;2023-07-31T10:43:38;13.00;;;4.82;;
29314;SDS011;16320;53.954;9.506;2023-07-31T10:46:45;11.05;;;4.32;;
29314;SDS011;16320;53.954;9.506;2023-07-31T10:49:51;10.50;;;4.30;;
29314;SDS011;16320;53.954;9.506;2023-07-31T10:52:56;10.05;;;4.50;;
29314;SDS011;16320;53.954;9.506;2023-07-31T10:56:08;10.63;;;4.00;;
29314;SDS011;16320;53.954;9.506;2023-07-31T10:59:17;12.95;;;3.90;;
29314;SDS011;16320;53.954;9.506;2023-07-31T11:02:25;12.77;;;4.03;;
29314;SDS011;16320;53.954;9.506;2023-07-31T11:08:47;14.95;;;5.25;;
29314;SDS011;16320;53.954;9.506;2023-07-31T11:11:54;14.60;;;4.55;;
29314;SDS011;16320;53.954;9.506;2023-07-31T11:14:59;10.70;;;4.43;;
29314;SDS011;16320;53.954;9.506;2023-07-31T11:18:04;13.38;;;3.90;;
29314;SDS011;16320;53.954;9.506;2023-07-31T11:21:13;12.07;;;4.05;;
29314;SDS011;16320;53.954;9.506;2023-07-31T11:24:25;14.50;;;4.05;;
29314;SDS011;16320;53.954;9.506;2023-07-31T11:27:38;9.95;;;3.40;;
29314;SDS011;16320;53.954;9.506;2023-07-31T11:30:45;17.33;;;2.92;;
29314;SDS011;16320;53.954;9.506;2023-07-31T11:33:50;6.20;;;2.95;;
29314;SDS011;16320;53.954;9.506;2023-07-31T11:37:07;5.95;;;2.88;;
29314;SDS011;16320;53.954;9.506;2023-07-31T11:40:12;14.15;;;3.45;;
29314;SDS011;16320;53.954;9.506;2023-07-31T11:43:17;9.57;;;2.60;;
29314;SDS011;16320;53.954;9.506;2023-07-31T11:46:23;10.82;;;2.72;;
29314;SDS011;16320;53.954;9.506;2023-07-31T11:49:28;12.00;;;2.65;;
29314;SDS011;16320;53.954;9.506;2023-07-31T11:52:35;7.10;;;2.28;;
29314;SDS011;16320;53.954;9.506;2023-07-31T11:55:46;9.05;;;2.63;;
29314;SDS011;16320;53.954;9.506;2023-07-31T11:58:53;7.38;;;3.42;;
29314;SDS011;16320;53.954;9.506;2023-07-31T12:02:03;6.10;;;2.45;;
29314;SDS011;16320;53.954;9.506;2023-07-31T12:05:11;6.35;;;2.60;;
29314;SDS011;16320;53.954;9.506;2023-07-31T12:08:18;10.60;;;2.42;;
29314;SDS011;16320;53.954;9.506;2023-07-31T12:11:27;5.55;;;2.45;;
29314;SDS011;16320;53.954;9.506;2023-07-31T12:14:31;5.50;;;2.95;;
29314;SDS011;16320;53.954;9.506;2023-07-31T12:20:41;6.80;;;2.45;;
29314;SDS011;16320;53.954;9.506;2023-07-31T12:23:51;10.70;;;2.40;;
29314;SDS011;16320;53.954;9.506;2023-07-31T12:26:57;9.55;;;2.55;;
29314;SDS011;16320;53.954;9.506;2023-07-31T12:30:01;6.15;;;2.65;;
29314;SDS011;16320;53.954;9.506;2023-07-31T12:33:07;7.25;;;2.50;;
29314;SDS011;16320;53.954;9.506;2023-07-31T12:36:22;4.70;;;2.40;;
29314;SDS011;16320;53.954;9.506;2023-07-31T12:39:28;5.80;;;3.10;;
29314;SDS011;16320;53.954;9.506;2023-07-31T12:42:32;5.70;;;2.80;;
29314;SDS011;16320;53.954;9.506;2023-07-31T12:45:37;15.00;;;4.65;;
29314;SDS011;16320;53.954;9.506;2023-07-31T12:48:42;12.82;;;2.50;;
29314;SDS011;16320;53.954;9.506;2023-07-31T12:51:46;6.55;;;2.53;;
29314;SDS011;16320;53.954;9.506;2023-07-31T12:54:51;4.13;;;2.50;;
29314;SDS011;16320;53.954;9.506;2023-07-31T12:57:56;6.82;;;2.70;;
29314;SDS011;16320;53.954;9.506;2023-07-31T13:01:01;7.38;;;2.88;;
29314;SDS011;16320;53.954;9.506;2023-07-31T13:04:06;5.15;;;2.75;;
29314;SDS011;16320;53.954;9.506;2023-07-31T13:07:12;6.43;;;2.75;;
29314;SDS011;16320;53.954;9.506;2023-07-31T13:10:16;3.67;;;2.38;;
29314;SDS011;16320;53.954;9.506;2023-07-31T13:13:21;2.65;;;1.85;;
29314;SDS011;16320;53.954;9.506;2023-07-31T13:16:25;3.58;;;2.42;;
29314;SDS011;16320;53.954;9.506;2023-07-31T13:19:31;6.30;;;2.42;;
29314;SDS011;16320;53.954;9.506;2023-07-31T13:22:35;7.32;;;2.30;;
29314;SDS011;16320;53.954;9.506;2023-07-31T13:25:39;5.25;;;2.22;;
29314;SDS011;16320;53.954;9.506;2023-07-31T13:28:44;8.13;;;2.50;;
29314;SDS011;16320;53.954;9.506;2023-07-31T13:31:48;7.22;;;2.47;;
29314;SDS011;16320;53.954;9.506;2023-07-31T13:34:54;5.70;;;2.15;;
29314;SDS011;16320;53.954;9.506;2023-07-31T13:37:58;6.90;;;2.65;;
29314;SDS011;16320;53.954;9.506;2023-07-31T13:41:03;7.93;;;2.70;;
29314;SDS011;16320;53.954;9.506;2023-07-31T13:44:09;6.03;;;2.45;;
29314;SDS011;16320;53.954;9.506;2023-07-31T13:47:13;5.22;;;2.17;;
29314;SDS011;16320;53.954;9.506;2023-07-31T13:50:18;6.25;;;2.35;;
29314;SDS011;16320;53.954;9.506;2023-07-31T13:53:25;4.20;;;2.33;;
29314;SDS011;16320;53.954;9.506;2023-07-31T13:56:30;1.90;;;1.70;;
29314;SDS011;16320;53.954;9.506;2023-07-31T13:59:35;8.07;;;2.25;;
29314;SDS011;16320;53.954;9.506;2023-07-31T14:02:39;9.63;;;2.10;;
29314;SDS011;16320;53.954;9.506;2023-07-31T14:05:44;9.18;;;2.20;;
29314;SDS011;16320;53.954;9.506;2023-07-31T14:08:49;4.78;;;2.00;;
29314;SDS011;16320;53.954;9.506;2023-07-31T14:11:54;8.07;;;2.08;;
29314;SDS011;16320;53.954;9.506;2023-07-31T14:14:59;3.78;;;1.90;;
29314;SDS011;16320;53.954;9.506;2023-07-31T14:18:03;6.50;;;2.25;;
29314;SDS011;16320;53.954;9.506;2023-07-31T14:21:08;8.77;;;2.20;;
29314;SDS011;16320;53.954;9.506;2023-07-31T14:24:13;4.43;;;1.60;;
29314;SDS011;16320;53.954;9.506;2023-07-31T14:27:18;2.83;;;1.92;;
29314;SDS011;16320;53.954;9.506;2023-07-31T14:30:22;3.75;;;1.73;;
29314;SDS011;16320;53.954;9.506;2023-07-31T14:33:27;3.25;;;1.80;;
29314;SDS011;16320;53.954;9.506;2023-07-31T14:36:32;3.10;;;1.73;;
29314;SDS011;16320;53.954;9.506;2023-07-31T14:42:43;2.47;;;1.70;;
29314;SDS011;16320;53.954;9.506;2023-07-31T14:45:48;2.65;;;1.48;;
29314;SDS011;16320;53.954;9.506;2023-07-31T14:48:53;4.70;;;1.70;;
29314;SDS011;16320;53.954;9.506;2023-07-31T14:51:57;3.00;;;1.50;;
29314;SDS011;16320;53.954;9.506;2023-07-31T14:58:06;3.35;;;1.40;;
29314;SDS011;16320;53.954;9.506;2023-07-31T15:01:10;3.35;;;1.60;;
29314;SDS011;16320;53.954;9.506;2023-07-31T15:04:15;1.95;;;1.50;;
29314;SDS011;16320;53.954;9.506;2023-07-31T15:07:19;3.90;;;1.55;;
29314;SDS011;16320;53.954;9.506;2023-07-31T15:10:24;4.60;;;1.90;;
29314;SDS011;16320;53.954;9.506;2023-07-31T15:13:29;2.47;;;1.30;;
29314;SDS011;16320;53.954;9.506;2023-07-31T15:16:34;2.58;;;1.52;;
29314;SDS011;16320;53.954;9.506;2023-07-31T15:19:39;1.90;;;1.35;;
29314;SDS011;16320;53.954;9.506;2023-07-31T15:22:43;3.30;;;1.70;;
29314;SDS011;16320;53.954;9.506;2023-07-31T15:25:49;6.90;;;1.90;;
29314;SDS011;16320;53.954;9.506;2023-07-31T15:29:04;6.13;;;1.90;;
29314;SDS011;16320;53.954;9.506;2023-07-31T15:32:13;3.83;;;2.00;;
29314;SDS011;16320;53.954;9.506;2023-07-31T15:35:17;4.22;;;2.00;;
29314;SDS011;16320;53.954;9.506;2023-07-31T15:38:24;3.53;;;1.83;;
29314;SDS011;16320;53.954;9.506;2023-07-31T15:41:30;2.72;;;1.83;;
29314;SDS011;16320;53.954;9.506;2023-07-31T15:44:37;2.83;;;1.70;;
29314;SDS011;16320;53.954;9.506;2023-07-31T15:47:42;5.03;;;2.10;;
29314;SDS011;16320;53.954;9.506;2023-07-31T15:50:47;3.58;;;1.42;;
29314;SDS011;16320;53.954;9.506;2023-07-31T15:53:52;2.88;;;1.67;;
29314;SDS011;16320;53.954;9.506;2023-07-31T15:56:57;4.55;;;1.75;;
29314;SDS011;16320;53.954;9.506;2023-07-31T16:00:02;2.90;;;1.55;;
29314;SDS011;16320;53.954;9.506;2023-07-31T16:03:07;5.18;;;1.85;;
29314;SDS011;16320;53.954;9.506;2023-07-31T16:06:12;4.50;;;1.30;;
29314;SDS011;16320;53.954;9.506;2023-07-31T16:09:16;2.20;;;1.40;;
29314;SDS011;16320;53.954;9.506;2023-07-31T16:12:21;10.25;;;1.63;;
29314;SDS011;16320;53.954;9.506;2023-07-31T16:15:26;3.63;;;1.50;;
29314;SDS011;16320;53.954;9.506;2023-07-31T16:18:30;3.15;;;1.75;;
29314;SDS011;16320;53.954;9.506;2023-07-31T16:21:35;2.63;;;1.58;;
29314;SDS011;16320;53.954;9.506;2023-07-31T16:24:40;3.13;;;1.67;;
29314;SDS011;16320;53.954;9.506;2023-07-31T16:27:44;7.35;;;2.50;;
29314;SDS011;16320;53.954;9.506;2023-07-31T16:30:48;4.53;;;1.95;;
29314;SDS011;16320;53.954;9.506;2023-07-31T16:33:53;3.05;;;2.10;;
29314;SDS011;16320;53.954;9.506;2023-07-31T16:36:57;7.45;;;2.80;;
29314;SDS011;16320;53.954;9.506;2023-07-31T16:40:02;7.00;;;2.80;;
29314;SDS011;16320;53.954;9.506;2023-07-31T16:43:10;7.15;;;2.80;;
29314;SDS011;16320;53.954;9.506;2023-07-31T16:46:14;7.32;;;3.13;;
29314;SDS011;16320;53.954;9.506;2023-07-31T16:49:19;6.60;;;2.67;;
29314;SDS011;16320;53.954;9.506;2023-07-31T16:52:23;4.25;;;2.83;;
29314;SDS011;16320;53.954;9.506;2023-07-31T16:55:28;4.82;;;2.88;;
29314;SDS011;16320;53.954;9.506;2023-07-31T16:58:33;10.25;;;3.65;;
29314;SDS011;16320;53.954;9.506;2023-07-31T17:01:37;6.15;;;3.78;;
29314;SDS011;16320;53.954;9.506;2023-07-31T17:04:43;7.80;;;3.33;;
29314;SDS011;16320;53.954;9.506;2023-07-31T17:07:47;7.55;;;3.53;;
29314;SDS011;16320;53.954;9.506;2023-07-31T17:10:52;5.95;;;3.10;;
29314;SDS011;16320;53.954;9.506;2023-07-31T17:13:57;7.15;;;2.80;;
29314;SDS011;16320;53.954;9.506;2023-07-31T17:17:01;5.32;;;3.08;;
29314;SDS011;16320;53.954;9.506;2023-07-31T17:20:06;10.98;;;3.38;;
29314;SDS011;16320;53.954;9.506;2023-07-31T17:23:12;8.02;;;3.08;;
29314;SDS011;16320;53.954;9.506;2023-07-31T17:32:30;7.45;;;2.55;;
29314;SDS011;16320;53.954;9.506;2023-07-31T17:35:35;5.25;;;2.72;;
29314;SDS011;16320;53.954;9.506;2023-07-31T17:38:43;5.93;;;3.80;;
29314;SDS011;16320;53.954;9.506;2023-07-31T17:41:48;6.30;;;3.33;;
29314;SDS011;16320;53.954;9.506;2023-07-31T17:44:53;18.40;;;3.30;;
29314;SDS011;16320;53.954;9.506;2023-07-31T17:47:57;5.03;;;3.28;;
29314;SDS011;16320;53.954;9.506;2023-07-31T17:51:02;11.30;;;4.47;;
29314;SDS011;16320;53.954;9.506;2023-07-31T17:54:07;9.27;;;4.38;;
29314;SDS011;16320;53.954;9.506;2023-07-31T17:57:12;10.95;;;4.75;;
29314;SDS011;16320;53.954;9.506;2023-07-31T18:00:17;10.15;;;5.15;;
29314;SDS011;16320;53.954;9.506;2023-07-31T18:03:25;13.20;;;6.15;;
29314;SDS011;16320;53.954;9.506;2023-07-31T18:06:30;12.35;;;5.88;;
29314;SDS011;16320;53.954;9.506;2023-07-31T18:09:38;11.02;;;5.88;;
29314;SDS011;16320;53.954;9.506;2023-07-31T18:12:43;12.57;;;6.40;;
29314;SDS011;16320;53.954;9.506;2023-07-31T18:15:47;39.20;;;8.90;;
29314;SDS011;16320;53.954;9.506;2023-07-31T18:18:52;17.73;;;7.80;;
29314;SDS011;16320;53.954;9.506;2023-07-31T18:21:56;18.73;;;7.28;;
29314;SDS011;16320;53.954;9.506;2023-07-31T18:25:01;14.52;;;8.25;;
29314;SDS011;16320;53.954;9.506;2023-07-31T18:28:06;14.60;;;8.18;;
29314;SDS011;16320;53.954;9.506;2023-07-31T18:31:11;17.73;;;7.90;;
29314;SDS011;16320;53.954;9.506;2023-07-31T18:34:15;15.05;;;7.93;;
29314;SDS011;16320;53.954;9.506;2023-07-31T18:37:20;27.63;;;8.88;;
29314;SDS011;16320;53.954;9.506;2023-07-31T18:40:24;19.70;;;8.80;;
29314;SDS011;16320;53.954;9.506;2023-07-31T18:43:29;25.38;;;8.15;;
29314;SDS011;16320;53.954;9.506;2023-07-31T18:46:34;26.63;;;8.73;;
29314;SDS011;16320;53.954;9.506;2023-07-31T18:49:39;23.58;;;9.57;;
29314;SDS011;16320;53.954;9.506;2023-07-31T18:52:44;27.85;;;9.27;;
29314;SDS011;16320;53.954;9.506;2023-07-31T18:55:49;28.20;;;9.32;;
29314;SDS011;16320;53.954;9.506;2023-07-31T18:58:53;23.23;;;10.65;;
29314;SDS011;16320;53.954;9.506;2023-07-31T19:01:58;20.65;;;9.73;;
29314;SDS011;16320;53.954;9.506;2023-07-31T19:05:03;30.52;;;9.88;;